createdAt,value
2023-05-02T00:02:00.003Z,3.63
2023-05-02T00:04:28.040Z,3.17
2023-05-02T00:06:56.198Z,3.47
2023-05-02T00:09:24.350Z,3.03
2023-05-02T00:11:52.276Z,3.25
2023-05-02T00:14:20.144Z,2.88
2023-05-02T00:16:48.086Z,3.03
2023-05-02T00:19:19.834Z,3.20
2023-05-02T00:21:48.832Z,3.35
2023-05-02T00:24:16.801Z,3.35
2023-05-02T00:26:45.236Z,3.00
2023-05-02T00:29:13.152Z,3.30
2023-05-02T00:31:41.950Z,3.42
2023-05-02T00:34:09.864Z,3.30
2023-05-02T00:36:39.451Z,2.88
2023-05-02T00:39:07.483Z,3.03
2023-05-02T00:41:35.395Z,3.30
2023-05-02T00:44:03.639Z,2.88
2023-05-02T00:46:32.187Z,2.95
2023-05-02T00:49:00.179Z,3.10
2023-05-02T00:51:29.076Z,3.83
2023-05-02T00:53:58.719Z,2.72
2023-05-02T00:56:27.391Z,3.33
2023-05-02T00:58:55.525Z,3.33
2023-05-02T01:01:33.277Z,2.83
2023-05-02T01:04:05.998Z,2.83
2023-05-02T01:06:41.175Z,3.05
2023-05-02T01:09:18.239Z,3.63
2023-05-02T01:11:49.998Z,2.80
2023-05-02T01:14:18.468Z,3.40
2023-05-02T01:16:46.827Z,2.83
2023-05-02T01:19:22.186Z,3.13
2023-05-02T01:21:50.986Z,3.25
2023-05-02T01:24:24.013Z,2.47
2023-05-02T01:26:53.796Z,2.45
2023-05-02T01:29:24.260Z,2.50
2023-05-02T01:31:52.649Z,3.20
2023-05-02T01:34:22.733Z,2.85
2023-05-02T01:36:52.170Z,2.63
2023-05-02T01:39:21.626Z,2.75
2023-05-02T01:41:50.799Z,2.60
2023-05-02T01:44:19.724Z,2.90
2023-05-02T01:46:49.850Z,3.03
2023-05-02T01:49:19.335Z,3.20
2023-05-02T01:51:49.046Z,2.80
2023-05-02T01:54:18.436Z,2.90
2023-05-02T01:56:46.712Z,2.05
2023-05-02T01:59:18.277Z,2.65
2023-05-02T02:01:47.066Z,2.70
2023-05-02T02:04:17.490Z,2.88
2023-05-02T02:06:49.866Z,2.60
2023-05-02T02:09:17.846Z,3.50
2023-05-02T02:11:47.784Z,2.80
2023-05-02T02:14:18.680Z,2.78
2023-05-02T02:16:46.817Z,3.47
2023-05-02T02:19:16.560Z,2.35
2023-05-02T02:21:47.126Z,2.60
2023-05-02T02:24:15.344Z,3.00
2023-05-02T02:26:43.281Z,2.58
2023-05-02T02:29:11.506Z,3.00
2023-05-02T02:31:40.200Z,2.92
2023-05-02T02:34:08.319Z,2.80
2023-05-02T02:36:46.712Z,3.10
2023-05-02T02:39:19.329Z,3.17
2023-05-02T02:41:51.815Z,2.80
2023-05-02T02:44:27.722Z,3.03
2023-05-02T02:47:02.629Z,2.70
2023-05-02T02:49:35.489Z,3.00
2023-05-02T02:52:07.982Z,2.85
2023-05-02T02:54:38.507Z,3.03
2023-05-02T02:57:08.923Z,2.80
2023-05-02T02:59:41.443Z,3.10
2023-05-02T03:02:10.360Z,2.92
2023-05-02T03:04:40.081Z,3.80
2023-05-02T03:07:09.422Z,2.90
2023-05-02T03:09:43.968Z,3.15
2023-05-02T03:12:16.654Z,3.58
2023-05-02T03:14:45.497Z,2.90
2023-05-02T03:17:13.394Z,3.08
2023-05-02T03:19:42.376Z,3.15
2023-05-02T03:22:11.764Z,3.08
2023-05-02T03:24:39.619Z,3.13
2023-05-02T03:27:07.556Z,3.10
2023-05-02T03:29:41.676Z,3.05
2023-05-02T03:32:11.564Z,3.38
2023-05-02T03:34:41.938Z,3.70
2023-05-02T03:37:12.212Z,2.85
2023-05-02T03:39:40.114Z,3.30
2023-05-02T03:42:08.016Z,3.50
2023-05-02T03:44:35.947Z,3.35
2023-05-02T03:47:04.280Z,3.42
2023-05-02T03:49:37.970Z,3.40
2023-05-02T03:52:07.370Z,4.13
2023-05-02T03:54:38.481Z,3.55
2023-05-02T03:57:06.753Z,4.03
2023-05-02T03:59:35.534Z,3.92
2023-05-02T04:02:12.621Z,3.08
2023-05-02T04:04:44.685Z,3.90
2023-05-02T04:07:19.340Z,4.30
2023-05-02T04:09:52.937Z,4.10
2023-05-02T04:12:21.282Z,4.10
2023-05-02T04:14:52.080Z,3.80
2023-05-02T04:17:22.367Z,4.13
2023-05-02T04:19:51.519Z,4.07
2023-05-02T04:22:21.747Z,4.72
2023-05-02T04:25:01.919Z,4.22
2023-05-02T04:27:31.236Z,4.25
2023-05-02T04:30:00.446Z,5.25
2023-05-02T04:32:28.777Z,4.70
2023-05-02T04:34:58.034Z,4.03
2023-05-02T04:37:26.319Z,4.05
2023-05-02T04:39:54.335Z,4.20
2023-05-02T04:42:27.746Z,3.58
2023-05-02T04:45:15.647Z,3.20
2023-05-02T04:47:45.258Z,3.78
2023-05-02T04:50:13.154Z,3.60
2023-05-02T04:52:41.175Z,3.95
2023-05-02T04:55:09.464Z,4.40
2023-05-02T04:57:40.054Z,4.05
2023-05-02T05:00:11.167Z,4.45
2023-05-02T05:02:40.186Z,4.30
2023-05-02T05:05:09.642Z,4.25
2023-05-02T05:07:37.554Z,3.95
2023-05-02T05:10:06.766Z,4.43
2023-05-02T05:12:42.789Z,5.38
2023-05-02T05:15:12.214Z,7.93
2023-05-02T05:17:43.412Z,4.03
2023-05-02T05:20:11.431Z,3.78
2023-05-02T05:22:41.501Z,4.07
2023-05-02T05:25:11.633Z,4.00
2023-05-02T05:27:39.992Z,4.28
2023-05-02T05:30:11.582Z,4.47
2023-05-02T05:32:40.306Z,4.32
2023-05-02T05:35:08.808Z,4.35
2023-05-02T05:37:39.699Z,4.50
2023-05-02T05:40:12.600Z,4.60
2023-05-02T05:42:43.697Z,4.60
2023-05-02T05:45:19.813Z,4.85
2023-05-02T05:47:48.540Z,4.97
2023-05-02T05:50:16.849Z,4.13
2023-05-02T05:52:46.679Z,4.65
2023-05-02T05:55:14.704Z,4.53
2023-05-02T05:57:42.861Z,4.70
2023-05-02T06:00:12.124Z,4.75
2023-05-02T06:02:50.515Z,6.78
2023-05-02T06:05:27.624Z,5.53
2023-05-02T06:07:55.858Z,4.63
2023-05-02T06:10:23.844Z,4.45
2023-05-02T06:12:52.709Z,4.50
2023-05-02T06:15:25.454Z,5.32
2023-05-02T06:17:55.257Z,5.00
2023-05-02T06:20:23.310Z,5.38
2023-05-02T06:22:51.313Z,4.18
2023-05-02T06:25:19.993Z,5.13
2023-05-02T06:27:47.918Z,5.93
2023-05-02T06:30:15.973Z,5.38
2023-05-02T06:32:44.307Z,4.38
2023-05-02T06:35:13.840Z,5.57
2023-05-02T06:37:41.731Z,4.40
2023-05-02T06:40:10.519Z,5.03
2023-05-02T06:42:38.572Z,4.43
2023-05-02T06:45:07.847Z,3.53
2023-05-02T06:47:36.012Z,4.28
2023-05-02T06:50:06.491Z,5.38
2023-05-02T06:52:35.999Z,7.28
2023-05-02T06:55:04.018Z,6.22
2023-05-02T06:57:31.988Z,4.78
2023-05-02T07:00:00.127Z,4.63
2023-05-02T07:02:28.293Z,3.97
2023-05-02T07:04:56.246Z,4.00
2023-05-02T07:07:24.167Z,4.03
2023-05-02T07:09:53.532Z,3.90
2023-05-02T07:12:21.496Z,5.30
2023-05-02T07:14:49.432Z,5.00
2023-05-02T07:17:17.525Z,5.50
2023-05-02T07:19:45.761Z,4.90
2023-05-02T07:22:13.846Z,5.20
2023-05-02T07:24:41.824Z,4.00
2023-05-02T07:27:11.892Z,3.65
2023-05-02T07:29:40.279Z,4.05
2023-05-02T07:32:08.438Z,4.05
2023-05-02T07:34:36.395Z,4.70
2023-05-02T07:37:04.312Z,6.35
2023-05-02T07:39:35.786Z,4.55
2023-05-02T07:42:04.111Z,4.32
2023-05-02T07:44:33.829Z,4.28
2023-05-02T07:47:01.817Z,4.80
2023-05-02T07:49:31.953Z,4.32
2023-05-02T07:52:00.024Z,4.95
2023-05-02T07:54:27.920Z,4.13
2023-05-02T07:56:58.348Z,5.13
2023-05-02T07:59:27.538Z,4.30
2023-05-02T08:01:56.935Z,4.22
2023-05-02T08:04:25.421Z,4.80
2023-05-02T08:06:53.506Z,4.40
2023-05-02T08:09:21.591Z,4.15
2023-05-02T08:11:49.459Z,4.20
2023-05-02T08:14:17.546Z,3.80
2023-05-02T08:16:46.635Z,3.85
2023-05-02T08:19:16.309Z,3.90
2023-05-02T08:21:44.542Z,3.80
2023-05-02T08:24:12.522Z,4.43
2023-05-02T08:26:40.585Z,6.07
2023-05-02T08:29:08.436Z,4.22
2023-05-02T08:31:36.612Z,4.00
2023-05-02T08:34:07.587Z,3.15
2023-05-02T08:36:37.426Z,3.40
2023-05-02T08:39:07.349Z,3.55
2023-05-02T08:41:35.750Z,3.03
2023-05-02T08:44:03.985Z,4.03
2023-05-02T08:46:32.285Z,3.72
2023-05-02T08:49:01.216Z,4.28
2023-05-02T08:51:30.095Z,3.03
2023-05-02T08:54:00.157Z,4.13
2023-05-02T08:56:28.565Z,3.45
2023-05-02T08:58:57.733Z,2.90
2023-05-02T09:01:29.916Z,3.47
2023-05-02T09:03:59.528Z,3.53
2023-05-02T09:06:28.259Z,5.00
2023-05-02T09:08:56.362Z,3.30
2023-05-02T09:11:25.720Z,4.45
2023-05-02T09:13:53.785Z,3.47
2023-05-02T09:16:23.057Z,3.25
2023-05-02T09:18:52.164Z,2.88
2023-05-02T09:21:21.510Z,2.97
2023-05-02T09:23:50.226Z,2.90
2023-05-02T09:26:19.592Z,3.03
2023-05-02T09:28:49.696Z,2.95
2023-05-02T09:31:26.916Z,2.88
2023-05-02T09:34:09.740Z,3.35
2023-05-02T09:36:40.686Z,3.28
2023-05-02T09:39:10.352Z,3.53
2023-05-02T09:41:41.156Z,3.05
2023-05-02T09:44:12.680Z,3.97
2023-05-02T09:46:42.071Z,3.10
2023-05-02T09:49:10.280Z,2.92
2023-05-02T09:51:38.332Z,3.22
2023-05-02T09:54:06.513Z,2.90
2023-05-02T09:56:52.814Z,2.97
2023-05-02T09:59:22.125Z,4.47
2023-05-02T10:01:56.096Z,3.50
2023-05-02T10:04:24.521Z,3.10
2023-05-02T10:06:52.977Z,2.85
2023-05-02T10:09:21.811Z,2.72
2023-05-02T10:11:52.557Z,2.90
2023-05-02T10:14:21.644Z,3.17
2023-05-02T10:16:56.747Z,3.05
2023-05-02T10:19:26.010Z,2.65
2023-05-02T10:21:54.981Z,2.72
2023-05-02T10:24:23.201Z,2.97
2023-05-02T10:26:51.426Z,3.67
2023-05-02T10:29:19.465Z,2.97
2023-05-02T10:31:48.382Z,2.97
2023-05-02T10:34:19.869Z,3.05
2023-05-02T10:36:47.834Z,3.13
2023-05-02T10:39:16.110Z,2.90
2023-05-02T10:41:44.823Z,3.17
2023-05-02T10:44:12.779Z,3.63
2023-05-02T10:46:41.829Z,2.88
2023-05-02T10:49:10.674Z,3.00
2023-05-02T10:51:41.295Z,3.13
2023-05-02T10:54:21.949Z,2.90
2023-05-02T10:57:06.548Z,3.13
2023-05-02T10:59:39.332Z,2.95
2023-05-02T11:02:28.153Z,2.85
2023-05-02T11:05:04.625Z,3.47
2023-05-02T11:07:36.039Z,3.50
2023-05-02T11:10:20.537Z,3.05
2023-05-02T11:12:49.311Z,2.67
2023-05-02T11:15:38.591Z,3.20
2023-05-02T11:18:07.807Z,2.88
2023-05-02T11:20:36.403Z,3.05
2023-05-02T11:23:28.177Z,2.97
2023-05-02T11:25:58.114Z,3.08
2023-05-02T11:28:42.316Z,3.20
2023-05-02T11:31:10.983Z,3.80
2023-05-02T11:33:38.953Z,2.70
2023-05-02T11:36:07.611Z,2.72
2023-05-02T11:38:39.542Z,3.28
2023-05-02T11:41:11.520Z,2.80
2023-05-02T11:43:39.504Z,3.75
2023-05-02T11:46:07.844Z,3.15
2023-05-02T11:48:37.014Z,2.40
2023-05-02T11:51:07.288Z,2.70
2023-05-02T11:53:41.311Z,2.63
2023-05-02T11:56:10.908Z,2.67
2023-05-02T11:58:38.811Z,2.30
2023-05-02T12:01:14.013Z,2.33
2023-05-02T12:03:42.605Z,2.67
2023-05-02T12:06:12.468Z,2.78
2023-05-02T12:08:41.323Z,2.35
2023-05-02T12:11:11.475Z,2.13
2023-05-02T12:13:46.179Z,2.70
2023-05-02T12:16:14.308Z,2.08
2023-05-02T12:18:42.379Z,2.70
2023-05-02T12:21:10.661Z,2.50
2023-05-02T12:23:38.728Z,2.65
2023-05-02T12:26:19.294Z,2.72
2023-05-02T12:28:50.928Z,2.70
2023-05-02T12:31:19.633Z,2.70
2023-05-02T12:33:50.288Z,2.28
2023-05-02T12:36:18.557Z,2.67
2023-05-02T12:38:49.376Z,3.75
2023-05-02T12:41:18.908Z,2.53
2023-05-02T12:43:47.841Z,2.58
2023-05-02T12:46:15.924Z,3.05
2023-05-02T12:48:46.200Z,2.80
2023-05-02T12:51:24.846Z,2.92
2023-05-02T12:53:52.830Z,2.13
2023-05-02T12:56:22.288Z,2.25
2023-05-02T12:58:51.135Z,2.58
2023-05-02T13:01:19.215Z,2.65
2023-05-02T13:03:48.089Z,2.65
2023-05-02T13:06:18.462Z,2.25
2023-05-02T13:08:46.496Z,3.25
2023-05-02T13:11:14.779Z,2.65
2023-05-02T13:13:44.181Z,2.50
2023-05-02T13:16:12.220Z,2.65
2023-05-02T13:18:40.551Z,2.30
2023-05-02T13:21:08.669Z,2.47
2023-05-02T13:23:36.880Z,2.00
2023-05-02T13:26:04.829Z,2.90
2023-05-02T13:28:33.831Z,2.70
2023-05-02T13:31:03.257Z,2.53
2023-05-02T13:33:31.445Z,2.42
2023-05-02T13:35:59.463Z,2.85
2023-05-02T13:38:27.441Z,2.55
2023-05-02T13:40:55.337Z,3.20
2023-05-02T13:43:24.420Z,2.95
2023-05-02T13:45:52.559Z,4.22
2023-05-02T13:48:21.998Z,2.70
2023-05-02T13:50:49.975Z,2.88
2023-05-02T13:53:17.895Z,2.92
2023-05-02T13:55:45.911Z,2.70
2023-05-02T13:58:13.847Z,2.30
2023-05-02T14:00:41.820Z,4.07
2023-05-02T14:03:11.463Z,2.72
2023-05-02T14:05:43.644Z,2.60
2023-05-02T14:08:12.074Z,3.30
2023-05-02T14:10:40.102Z,2.45
2023-05-02T14:13:08.140Z,3.55
2023-05-02T14:15:37.635Z,2.90
2023-05-02T14:18:05.814Z,2.50
2023-05-02T14:20:34.689Z,2.58
2023-05-02T14:23:05.517Z,2.67
2023-05-02T14:25:36.047Z,2.30
2023-05-02T14:28:04.366Z,2.10
2023-05-02T14:30:32.487Z,2.40
2023-05-02T14:33:00.517Z,2.25
2023-05-02T14:35:28.356Z,2.22
2023-05-02T14:37:56.277Z,2.78
2023-05-02T14:40:25.567Z,2.40
2023-05-02T14:42:53.500Z,2.30
2023-05-02T14:45:21.988Z,2.38
2023-05-02T14:47:50.427Z,2.03
2023-05-02T14:50:18.475Z,2.35
2023-05-02T14:52:47.503Z,3.47
2023-05-02T14:55:15.963Z,2.75
2023-05-02T14:57:45.606Z,2.50
2023-05-02T15:00:13.946Z,2.92
2023-05-02T15:02:42.135Z,2.97
2023-05-02T15:05:12.334Z,2.33
2023-05-02T15:07:40.578Z,2.67
2023-05-02T15:10:09.402Z,3.30
2023-05-02T15:12:37.431Z,3.13
2023-05-02T15:15:09.330Z,2.92
2023-05-02T15:17:37.361Z,2.60
2023-05-02T15:20:05.732Z,3.10
2023-05-02T15:22:33.738Z,2.40
2023-05-02T15:25:03.079Z,2.25
2023-05-02T15:27:32.638Z,2.55
2023-05-02T15:30:01.250Z,2.78
2023-05-02T15:32:31.009Z,2.97
2023-05-02T15:34:59.296Z,2.75
2023-05-02T15:37:27.214Z,2.33
2023-05-02T15:39:55.181Z,2.65
2023-05-02T15:42:23.192Z,2.40
2023-05-02T15:44:54.033Z,2.40
2023-05-02T15:47:23.941Z,2.58
2023-05-02T15:49:55.176Z,2.85
2023-05-02T15:52:23.184Z,2.10
2023-05-02T15:54:51.943Z,2.42
2023-05-02T15:57:21.324Z,2.90
2023-05-02T15:59:49.214Z,2.60
2023-05-02T16:02:17.259Z,3.55
2023-05-02T16:04:45.195Z,2.70
2023-05-02T16:07:14.424Z,2.85
2023-05-02T16:09:42.606Z,2.45
2023-05-02T16:12:11.239Z,3.00
2023-05-02T16:14:39.518Z,2.58
2023-05-02T16:17:07.697Z,3.00
2023-05-02T16:19:35.969Z,2.42
2023-05-02T16:22:03.919Z,2.53
2023-05-02T16:24:33.286Z,3.00
2023-05-02T16:27:02.000Z,3.30
2023-05-02T16:29:30.325Z,2.33
2023-05-02T16:31:59.730Z,2.42
2023-05-02T16:34:27.880Z,2.85
2023-05-02T16:36:55.818Z,2.95
2023-05-02T16:39:23.836Z,2.33
2023-05-02T16:41:53.382Z,2.65
2023-05-02T16:44:21.590Z,2.55
2023-05-02T16:46:49.711Z,2.83
2023-05-02T16:49:17.876Z,2.78
2023-05-02T16:51:48.998Z,3.35
2023-05-02T16:54:17.030Z,3.28
2023-05-02T16:56:44.931Z,4.00
2023-05-02T16:59:14.352Z,4.28
2023-05-02T17:01:42.344Z,3.47
2023-05-02T17:04:10.215Z,3.72
2023-05-02T17:06:38.094Z,4.22
2023-05-02T17:09:06.346Z,3.95
2023-05-02T17:11:34.749Z,4.70
2023-05-02T17:14:02.822Z,3.72
2023-05-02T17:16:32.151Z,4.20
2023-05-02T17:19:00.408Z,4.50
2023-05-02T17:21:29.023Z,4.40
2023-05-02T17:23:56.932Z,3.90
2023-05-02T17:26:24.969Z,4.70
2023-05-02T17:28:53.801Z,4.68
2023-05-02T17:31:21.834Z,4.50
2023-05-02T17:33:51.601Z,4.20
2023-05-02T17:36:19.524Z,4.07
2023-05-02T17:38:47.709Z,4.30
2023-05-02T17:41:16.410Z,4.57
2023-05-02T17:43:44.446Z,3.97
2023-05-02T17:46:12.628Z,4.97
2023-05-02T17:48:43.733Z,4.88
2023-05-02T17:51:13.218Z,4.30
2023-05-02T17:53:42.594Z,4.30
2023-05-02T17:56:10.717Z,4.90
2023-05-02T17:58:38.636Z,4.50
2023-05-02T18:01:12.399Z,4.28
2023-05-02T18:03:41.036Z,4.50
2023-05-02T18:06:09.454Z,5.15
2023-05-02T18:08:38.834Z,4.82
2023-05-02T18:11:07.298Z,4.90
2023-05-02T18:13:37.438Z,5.32
2023-05-02T18:16:06.259Z,4.65
2023-05-02T18:18:36.412Z,4.50
2023-05-02T18:21:04.534Z,4.32
2023-05-02T18:23:32.411Z,4.72
2023-05-02T18:26:02.473Z,4.85
2023-05-02T18:28:30.908Z,4.28
2023-05-02T18:30:58.892Z,3.70
2023-05-02T18:33:26.908Z,4.32
2023-05-02T18:35:54.918Z,3.80
2023-05-02T18:38:22.873Z,4.10
2023-05-02T18:40:51.383Z,4.55
2023-05-02T18:43:21.491Z,3.85
2023-05-02T18:45:49.608Z,4.38
2023-05-02T18:48:17.702Z,4.03
2023-05-02T18:50:45.666Z,3.67
2023-05-02T18:53:15.048Z,4.40
2023-05-02T18:55:43.238Z,4.10
2023-05-02T18:58:11.139Z,4.38
2023-05-02T19:00:41.338Z,4.28
2023-05-02T19:03:09.334Z,4.80
2023-05-02T19:05:37.704Z,4.22
2023-05-02T19:08:06.416Z,4.72
2023-05-02T19:10:35.112Z,4.72
2023-05-02T19:13:03.283Z,4.50
2023-05-02T19:15:31.286Z,4.55
2023-05-02T19:18:00.767Z,4.80
2023-05-02T19:20:29.244Z,4.55
2023-05-02T19:23:14.689Z,4.28
2023-05-02T19:25:46.106Z,4.70
2023-05-02T19:28:15.829Z,4.78
2023-05-02T19:30:44.089Z,4.90
2023-05-02T19:33:13.553Z,4.55
2023-05-02T19:35:41.591Z,4.78
2023-05-02T19:38:09.504Z,5.95
2023-05-02T19:40:37.466Z,4.78
2023-05-02T19:43:05.590Z,5.20
2023-05-02T19:45:33.548Z,4.65
2023-05-02T19:48:02.009Z,5.40
2023-05-02T19:50:33.445Z,5.22
2023-05-02T19:53:01.668Z,5.22
2023-05-02T19:55:29.531Z,4.88
2023-05-02T19:57:57.429Z,4.68
2023-05-02T20:00:25.982Z,4.85
2023-05-02T20:02:53.984Z,4.90
2023-05-02T20:05:21.988Z,4.88
2023-05-02T20:07:51.339Z,4.57
2023-05-02T20:10:19.493Z,5.22
2023-05-02T20:12:47.436Z,4.53
2023-05-02T20:15:16.461Z,3.90
2023-05-02T20:17:44.575Z,5.63
2023-05-02T20:20:12.966Z,6.78
2023-05-02T20:22:41.183Z,5.20
2023-05-02T20:25:11.644Z,6.05
2023-05-02T20:27:41.588Z,4.63
2023-05-02T20:30:10.110Z,5.05
2023-05-02T20:32:38.044Z,5.70
2023-05-02T20:35:06.383Z,6.18
2023-05-02T20:37:34.378Z,4.85
2023-05-02T20:40:02.495Z,6.20
2023-05-02T20:42:32.502Z,5.65
2023-05-02T20:45:00.956Z,7.05
2023-05-02T20:47:30.173Z,6.93
2023-05-02T20:49:58.314Z,6.18
2023-05-02T20:52:26.370Z,6.13
2023-05-02T20:54:55.212Z,5.43
2023-05-02T20:57:23.097Z,6.00
2023-05-02T20:59:53.436Z,5.82
2023-05-02T21:02:22.304Z,5.95
2023-05-02T21:04:50.180Z,6.10
2023-05-02T21:07:18.106Z,6.20
2023-05-02T21:09:46.023Z,6.20
2023-05-02T21:12:14.106Z,6.30
2023-05-02T21:14:42.441Z,5.68
2023-05-02T21:17:11.722Z,7.18
2023-05-02T21:19:39.850Z,6.60
2023-05-02T21:22:07.699Z,5.68
2023-05-02T21:24:35.674Z,6.25
2023-05-02T21:27:03.730Z,5.75
2023-05-02T21:29:31.758Z,11.68
2023-05-02T21:31:59.769Z,8.20
2023-05-02T21:34:29.201Z,6.90
2023-05-02T21:36:57.148Z,6.43
2023-05-02T21:39:26.288Z,5.85
2023-05-02T21:41:54.258Z,6.53
2023-05-02T21:44:23.131Z,8.20
2023-05-02T21:46:51.805Z,9.23
2023-05-02T21:49:19.786Z,6.25
2023-05-02T21:51:49.044Z,6.68
2023-05-02T21:54:16.911Z,6.38
2023-05-02T21:56:44.840Z,5.40
2023-05-02T21:59:12.812Z,5.45
2023-05-02T22:01:40.936Z,4.93
2023-05-02T22:04:08.869Z,4.40
2023-05-02T22:06:37.476Z,4.63
2023-05-02T22:09:08.389Z,4.93
2023-05-02T22:11:37.286Z,4.72
2023-05-02T22:14:05.433Z,4.93
2023-05-02T22:16:33.487Z,4.22
2023-05-02T22:19:01.690Z,3.75
2023-05-02T22:21:30.161Z,4.22
2023-05-02T22:23:58.262Z,4.30
2023-05-02T22:26:28.242Z,4.35
2023-05-02T22:28:56.232Z,4.10
2023-05-02T22:31:24.157Z,4.03
2023-05-02T22:33:52.062Z,4.80
2023-05-02T22:36:20.679Z,5.38
2023-05-02T22:38:48.600Z,4.55
2023-05-02T22:41:16.589Z,4.68
2023-05-02T22:43:45.922Z,4.30
2023-05-02T22:46:13.904Z,4.35
2023-05-02T22:48:41.776Z,4.72
2023-05-02T22:51:10.660Z,4.20
2023-05-02T22:53:39.397Z,4.78
2023-05-02T22:56:07.485Z,4.40
2023-05-02T22:58:35.490Z,4.57
2023-05-02T23:01:04.915Z,4.10
2023-05-02T23:03:32.988Z,4.32
2023-05-02T23:06:00.942Z,3.95
2023-05-02T23:08:29.001Z,4.07
2023-05-02T23:10:57.306Z,5.80
2023-05-02T23:13:25.182Z,5.53
2023-05-02T23:15:53.932Z,5.75
2023-05-02T23:18:23.700Z,5.68
2023-05-02T23:20:54.395Z,4.78
2023-05-02T23:23:24.267Z,4.93
2023-05-02T23:25:52.309Z,5.70
2023-05-02T23:28:20.217Z,4.57
2023-05-02T23:30:48.251Z,4.65
2023-05-02T23:33:16.524Z,4.60
2023-05-02T23:35:47.917Z,4.55
2023-05-02T23:38:16.231Z,5.28
2023-05-02T23:40:44.121Z,4.45
2023-05-02T23:43:13.926Z,5.20
2023-05-02T23:45:42.101Z,5.30
2023-05-02T23:48:10.113Z,5.28
2023-05-02T23:50:40.757Z,5.90
2023-05-02T23:53:10.553Z,6.10
2023-05-02T23:55:38.900Z,6.35
2023-05-02T23:58:06.777Z,6.15
